Portada
METAR-TAF:

METAR-TAF

Aeropuertos :

Aeropuerto Devi Ahilyabai Holkar

Indore, India

latitud: 22-43N, longitud: 075-48E, altitud: 561 m

Observación

El informe se hizo hace 42 minutos, a las 15:00 UTC
Viento calma
Temperatura 31°C
Humedad 63%
Presión 1004 hPa
Visibilidad: 6000 m

METAR: VAID 231500Z 00000KT 6000 NSC 31/23 Q1004 NOSIG

Hora: 21:12 (15:42 UTC)

Pronóstico

El informe se hizo hace 1 hora y 42 minutos, a las 14:00 UTC
Pronóstico válido del 23 a las 15 UTC al 23 a las 24 UTC
Viento 5 kt del oeste-suroeste
Visibilidad: 6000 m
Escasas nubes a una altura de 2500 ft
Nubes dispersas a una altura de 10000 ft

TAF: VAID 231400Z 2315/2324 24005KT 6000 FEW025 SCT100

Observaciones y pronósticos meteorológicos de más de 4000 aeropuertos (mensajes METAR y TAF).

Los puntos amarillos y rojos representan las estaciones disponibles.

Ponga el ratón en el punto deseado para ver el nombre de la estación.

Haga clic para ver las observaciones y los pronósticos meteorológicos.

Para cambiar el mapa : haga clic en los botones verdes con una cruz de color negro para hacer un zoom, en el botón verde con un guión para alejar o en las flechas verdes para mapas adyacentes.


METAR-TAF: